sensor_id;sensor_type;location;lat;lon;timestamp;P1;durP1;ratioP1;P2;durP2;ratioP2
56927;SDS011;60850;52.502;13.426;2023-03-23T00:00:53;8.52;;;4.75;;
56927;SDS011;60850;52.502;13.426;2023-03-23T00:03:20;11.65;;;4.75;;
56927;SDS011;60850;52.502;13.426;2023-03-23T00:05:47;7.38;;;3.40;;
56927;SDS011;60850;52.502;13.426;2023-03-23T00:08:16;5.40;;;2.95;;
56927;SDS011;60850;52.502;13.426;2023-03-23T00:10:49;5.97;;;3.85;;
56927;SDS011;60850;52.502;13.426;2023-03-23T00:13:18;15.20;;;6.38;;
56927;SDS011;60850;52.502;13.426;2023-03-23T00:15:45;8.95;;;4.63;;
56927;SDS011;60850;52.502;13.426;2023-03-23T00:18:15;13.90;;;6.10;;
56927;SDS011;60850;52.502;13.426;2023-03-23T00:20:47;8.13;;;4.50;;
56927;SDS011;60850;52.502;13.426;2023-03-23T00:23:18;11.52;;;4.28;;
56927;SDS011;60850;52.502;13.426;2023-03-23T00:25:50;7.90;;;3.45;;
56927;SDS011;60850;52.502;13.426;2023-03-23T00:28:22;5.38;;;2.78;;
56927;SDS011;60850;52.502;13.426;2023-03-23T00:30:54;5.85;;;2.83;;
56927;SDS011;60850;52.502;13.426;2023-03-23T00:33:22;5.20;;;2.97;;
56927;SDS011;60850;52.502;13.426;2023-03-23T00:35:50;6.07;;;3.17;;
56927;SDS011;60850;52.502;13.426;2023-03-23T00:38:18;6.00;;;3.70;;
56927;SDS011;60850;52.502;13.426;2023-03-23T00:40:45;4.22;;;2.83;;
56927;SDS011;60850;52.502;13.426;2023-03-23T00:43:14;5.70;;;2.65;;
56927;SDS011;60850;52.502;13.426;2023-03-23T00:45:41;4.20;;;3.10;;
56927;SDS011;60850;52.502;13.426;2023-03-23T00:48:10;4.32;;;2.25;;
56927;SDS011;60850;52.502;13.426;2023-03-23T00:50:37;6.40;;;2.70;;
56927;SDS011;60850;52.502;13.426;2023-03-23T00:53:04;4.20;;;2.50;;
56927;SDS011;60850;52.502;13.426;2023-03-23T00:55:32;5.20;;;3.20;;
56927;SDS011;60850;52.502;13.426;2023-03-23T00:57:59;6.88;;;4.22;;
56927;SDS011;60850;52.502;13.426;2023-03-23T01:00:28;11.15;;;5.13;;
56927;SDS011;60850;52.502;13.426;2023-03-23T01:02:55;9.98;;;4.78;;
56927;SDS011;60850;52.502;13.426;2023-03-23T01:05:22;7.85;;;4.43;;
56927;SDS011;60850;52.502;13.426;2023-03-23T01:07:48;10.02;;;4.20;;
56927;SDS011;60850;52.502;13.426;2023-03-23T01:10:16;4.88;;;2.75;;
56927;SDS011;60850;52.502;13.426;2023-03-23T01:12:43;8.02;;;4.32;;
56927;SDS011;60850;52.502;13.426;2023-03-23T01:15:15;4.65;;;2.90;;
56927;SDS011;60850;52.502;13.426;2023-03-23T01:17:44;5.32;;;2.90;;
56927;SDS011;60850;52.502;13.426;2023-03-23T01:20:12;2.60;;;2.20;;
56927;SDS011;60850;52.502;13.426;2023-03-23T01:22:41;5.35;;;2.50;;
56927;SDS011;60850;52.502;13.426;2023-03-23T01:25:09;3.65;;;2.35;;
56927;SDS011;60850;52.502;13.426;2023-03-23T01:27:37;6.43;;;3.15;;
56927;SDS011;60850;52.502;13.426;2023-03-23T01:30:05;5.60;;;2.50;;
56927;SDS011;60850;52.502;13.426;2023-03-23T01:32:33;4.35;;;2.70;;
56927;SDS011;60850;52.502;13.426;2023-03-23T01:35:02;8.15;;;3.58;;
56927;SDS011;60850;52.502;13.426;2023-03-23T01:37:29;4.72;;;3.05;;
56927;SDS011;60850;52.502;13.426;2023-03-23T01:39:57;6.80;;;3.17;;
56927;SDS011;60850;52.502;13.426;2023-03-23T01:42:24;2.72;;;2.40;;
56927;SDS011;60850;52.502;13.426;2023-03-23T01:47:52;4.35;;;2.35;;
56927;SDS011;60850;52.502;13.426;2023-03-23T01:50:25;5.22;;;2.53;;
56927;SDS011;60850;52.502;13.426;2023-03-23T01:52:54;3.83;;;2.15;;
56927;SDS011;60850;52.502;13.426;2023-03-23T01:55:24;4.55;;;2.40;;
56927;SDS011;60850;52.502;13.426;2023-03-23T01:57:53;8.70;;;3.90;;
56927;SDS011;60850;52.502;13.426;2023-03-23T02:00:22;10.13;;;4.80;;
56927;SDS011;60850;52.502;13.426;2023-03-23T02:02:50;7.53;;;4.00;;
56927;SDS011;60850;52.502;13.426;2023-03-23T02:05:22;9.23;;;3.92;;
56927;SDS011;60850;52.502;13.426;2023-03-23T02:07:56;6.07;;;2.83;;
56927;SDS011;60850;52.502;13.426;2023-03-23T02:10:28;4.80;;;2.80;;
56927;SDS011;60850;52.502;13.426;2023-03-23T02:12:56;6.57;;;2.65;;
56927;SDS011;60850;52.502;13.426;2023-03-23T02:15:25;6.43;;;2.97;;
56927;SDS011;60850;52.502;13.426;2023-03-23T02:17:56;6.55;;;3.30;;
56927;SDS011;60850;52.502;13.426;2023-03-23T02:20:33;6.43;;;2.83;;
56927;SDS011;60850;52.502;13.426;2023-03-23T02:23:21;3.90;;;2.95;;
56927;SDS011;60850;52.502;13.426;2023-03-23T02:26:08;5.72;;;3.05;;
56927;SDS011;60850;52.502;13.426;2023-03-23T02:28:55;5.72;;;2.90;;
56927;SDS011;60850;52.502;13.426;2023-03-23T02:31:39;10.25;;;4.68;;
56927;SDS011;60850;52.502;13.426;2023-03-23T02:34:14;7.25;;;4.03;;
56927;SDS011;60850;52.502;13.426;2023-03-23T02:36:45;12.13;;;4.70;;
56927;SDS011;60850;52.502;13.426;2023-03-23T02:39:17;8.73;;;4.57;;
56927;SDS011;60850;52.502;13.426;2023-03-23T02:41:51;4.95;;;3.20;;
56927;SDS011;60850;52.502;13.426;2023-03-23T02:44:22;6.28;;;3.22;;
56927;SDS011;60850;52.502;13.426;2023-03-23T02:46:53;3.47;;;2.42;;
56927;SDS011;60850;52.502;13.426;2023-03-23T02:49:22;5.72;;;2.65;;
56927;SDS011;60850;52.502;13.426;2023-03-23T02:51:51;3.70;;;1.92;;
56927;SDS011;60850;52.502;13.426;2023-03-23T02:54:20;4.25;;;3.05;;
56927;SDS011;60850;52.502;13.426;2023-03-23T02:56:50;4.40;;;2.58;;
56927;SDS011;60850;52.502;13.426;2023-03-23T02:59:19;3.35;;;2.10;;
56927;SDS011;60850;52.502;13.426;2023-03-23T03:01:54;5.22;;;2.55;;
56927;SDS011;60850;52.502;13.426;2023-03-23T03:04:26;4.50;;;2.05;;
56927;SDS011;60850;52.502;13.426;2023-03-23T03:07:01;4.90;;;2.28;;
56927;SDS011;60850;52.502;13.426;2023-03-23T03:09:47;3.22;;;1.90;;
56927;SDS011;60850;52.502;13.426;2023-03-23T03:12:19;3.47;;;1.95;;
56927;SDS011;60850;52.502;13.426;2023-03-23T03:14:54;3.47;;;1.67;;
56927;SDS011;60850;52.502;13.426;2023-03-23T03:17:30;3.80;;;2.05;;
56927;SDS011;60850;52.502;13.426;2023-03-23T03:20:00;5.07;;;1.80;;
56927;SDS011;60850;52.502;13.426;2023-03-23T03:22:32;3.28;;;1.80;;
56927;SDS011;60850;52.502;13.426;2023-03-23T03:25:02;3.08;;;1.73;;
56927;SDS011;60850;52.502;13.426;2023-03-23T03:27:32;3.75;;;1.67;;
56927;SDS011;60850;52.502;13.426;2023-03-23T03:30:00;4.43;;;2.00;;
56927;SDS011;60850;52.502;13.426;2023-03-23T03:32:34;3.47;;;2.10;;
56927;SDS011;60850;52.502;13.426;2023-03-23T03:35:07;3.42;;;2.00;;
56927;SDS011;60850;52.502;13.426;2023-03-23T03:37:34;3.47;;;1.92;;
56927;SDS011;60850;52.502;13.426;2023-03-23T03:40:03;4.38;;;2.00;;
56927;SDS011;60850;52.502;13.426;2023-03-23T03:42:36;2.97;;;1.90;;
56927;SDS011;60850;52.502;13.426;2023-03-23T03:45:04;2.75;;;2.00;;
56927;SDS011;60850;52.502;13.426;2023-03-23T03:47:32;3.63;;;1.90;;
56927;SDS011;60850;52.502;13.426;2023-03-23T03:49:59;2.95;;;1.90;;
56927;SDS011;60850;52.502;13.426;2023-03-23T03:52:28;3.40;;;1.90;;
56927;SDS011;60850;52.502;13.426;2023-03-23T03:54:54;3.72;;;1.73;;
56927;SDS011;60850;52.502;13.426;2023-03-23T03:57:22;4.78;;;2.03;;
56927;SDS011;60850;52.502;13.426;2023-03-23T03:59:49;3.38;;;2.05;;
56927;SDS011;60850;52.502;13.426;2023-03-23T04:02:17;3.13;;;2.00;;
56927;SDS011;60850;52.502;13.426;2023-03-23T04:04:46;2.80;;;1.75;;
56927;SDS011;60850;52.502;13.426;2023-03-23T04:07:13;2.33;;;1.77;;
56927;SDS011;60850;52.502;13.426;2023-03-23T04:09:44;3.70;;;2.20;;
56927;SDS011;60850;52.502;13.426;2023-03-23T04:12:13;3.10;;;1.75;;
56927;SDS011;60850;52.502;13.426;2023-03-23T04:14:40;3.55;;;2.03;;
56927;SDS011;60850;52.502;13.426;2023-03-23T04:17:07;5.97;;;2.10;;
56927;SDS011;60850;52.502;13.426;2023-03-23T04:19:36;2.90;;;1.80;;
56927;SDS011;60850;52.502;13.426;2023-03-23T04:22:03;3.63;;;1.90;;
56927;SDS011;60850;52.502;13.426;2023-03-23T04:24:31;4.40;;;2.60;;
56927;SDS011;60850;52.502;13.426;2023-03-23T04:27:02;4.03;;;2.30;;
56927;SDS011;60850;52.502;13.426;2023-03-23T04:29:29;3.67;;;1.90;;
56927;SDS011;60850;52.502;13.426;2023-03-23T04:31:56;4.40;;;2.15;;
56927;SDS011;60850;52.502;13.426;2023-03-23T04:34:23;5.10;;;1.85;;
56927;SDS011;60850;52.502;13.426;2023-03-23T04:36:51;4.40;;;2.00;;
56927;SDS011;60850;52.502;13.426;2023-03-23T04:39:18;3.38;;;2.00;;
56927;SDS011;60850;52.502;13.426;2023-03-23T04:41:45;4.57;;;2.03;;
56927;SDS011;60850;52.502;13.426;2023-03-23T04:44:13;2.83;;;1.80;;
56927;SDS011;60850;52.502;13.426;2023-03-23T04:46:43;2.58;;;2.00;;
56927;SDS011;60850;52.502;13.426;2023-03-23T04:49:15;3.65;;;2.13;;
56927;SDS011;60850;52.502;13.426;2023-03-23T04:51:46;5.80;;;2.08;;
56927;SDS011;60850;52.502;13.426;2023-03-23T04:54:16;4.18;;;2.85;;
56927;SDS011;60850;52.502;13.426;2023-03-23T04:56:43;3.00;;;1.92;;
56927;SDS011;60850;52.502;13.426;2023-03-23T04:59:10;4.28;;;2.08;;
56927;SDS011;60850;52.502;13.426;2023-03-23T05:01:40;5.15;;;2.13;;
56927;SDS011;60850;52.502;13.426;2023-03-23T05:04:10;1.95;;;1.70;;
56927;SDS011;60850;52.502;13.426;2023-03-23T05:06:38;4.47;;;2.17;;
56927;SDS011;60850;52.502;13.426;2023-03-23T05:09:06;5.15;;;2.15;;
56927;SDS011;60850;52.502;13.426;2023-03-23T05:11:33;3.33;;;1.90;;
56927;SDS011;60850;52.502;13.426;2023-03-23T05:14:00;2.30;;;1.77;;
56927;SDS011;60850;52.502;13.426;2023-03-23T05:16:27;5.35;;;2.30;;
56927;SDS011;60850;52.502;13.426;2023-03-23T05:18:55;3.17;;;2.13;;
56927;SDS011;60850;52.502;13.426;2023-03-23T05:21:23;4.95;;;2.30;;
56927;SDS011;60850;52.502;13.426;2023-03-23T05:23:51;3.50;;;2.13;;
56927;SDS011;60850;52.502;13.426;2023-03-23T05:26:20;5.00;;;2.10;;
56927;SDS011;60850;52.502;13.426;2023-03-23T05:28:47;4.60;;;2.38;;
56927;SDS011;60850;52.502;13.426;2023-03-23T05:31:17;4.53;;;2.03;;
56927;SDS011;60850;52.502;13.426;2023-03-23T05:33:44;4.50;;;2.30;;
56927;SDS011;60850;52.502;13.426;2023-03-23T05:36:13;5.43;;;2.33;;
56927;SDS011;60850;52.502;13.426;2023-03-23T05:38:41;3.42;;;2.10;;
56927;SDS011;60850;52.502;13.426;2023-03-23T05:41:10;3.00;;;1.85;;
56927;SDS011;60850;52.502;13.426;2023-03-23T05:43:37;4.57;;;2.25;;
56927;SDS011;60850;52.502;13.426;2023-03-23T05:46:04;2.78;;;1.80;;
56927;SDS011;60850;52.502;13.426;2023-03-23T05:48:32;5.10;;;2.15;;
56927;SDS011;60850;52.502;13.426;2023-03-23T05:50:59;4.50;;;2.20;;
56927;SDS011;60850;52.502;13.426;2023-03-23T05:53:27;4.75;;;1.85;;
56927;SDS011;60850;52.502;13.426;2023-03-23T05:55:58;3.90;;;1.73;;
56927;SDS011;60850;52.502;13.426;2023-03-23T05:58:25;3.45;;;1.80;;
56927;SDS011;60850;52.502;13.426;2023-03-23T06:00:53;4.32;;;1.73;;
56927;SDS011;60850;52.502;13.426;2023-03-23T06:03:20;4.53;;;2.42;;
56927;SDS011;60850;52.502;13.426;2023-03-23T06:05:48;4.68;;;2.33;;
56927;SDS011;60850;52.502;13.426;2023-03-23T06:08:15;3.20;;;2.13;;
56927;SDS011;60850;52.502;13.426;2023-03-23T06:10:43;3.40;;;1.63;;
56927;SDS011;60850;52.502;13.426;2023-03-23T06:13:10;4.22;;;1.83;;
56927;SDS011;60850;52.502;13.426;2023-03-23T06:15:38;3.70;;;2.00;;
56927;SDS011;60850;52.502;13.426;2023-03-23T06:18:05;4.10;;;1.90;;
56927;SDS011;60850;52.502;13.426;2023-03-23T06:20:33;6.10;;;2.10;;
56927;SDS011;60850;52.502;13.426;2023-03-23T06:23:00;2.25;;;1.50;;
56927;SDS011;60850;52.502;13.426;2023-03-23T06:25:28;5.30;;;2.10;;
56927;SDS011;60850;52.502;13.426;2023-03-23T06:27:57;5.60;;;1.55;;
56927;SDS011;60850;52.502;13.426;2023-03-23T06:30:24;4.13;;;1.80;;
56927;SDS011;60850;52.502;13.426;2023-03-23T06:33:02;3.22;;;1.83;;
56927;SDS011;60850;52.502;13.426;2023-03-23T06:35:35;2.55;;;1.70;;
56927;SDS011;60850;52.502;13.426;2023-03-23T06:38:02;3.05;;;1.52;;
56927;SDS011;60850;52.502;13.426;2023-03-23T06:40:29;4.85;;;1.65;;
56927;SDS011;60850;52.502;13.426;2023-03-23T06:42:58;4.47;;;1.40;;
56927;SDS011;60850;52.502;13.426;2023-03-23T06:45:25;2.97;;;1.63;;
56927;SDS011;60850;52.502;13.426;2023-03-23T06:47:52;2.60;;;1.60;;
56927;SDS011;60850;52.502;13.426;2023-03-23T06:50:19;5.75;;;2.00;;
56927;SDS011;60850;52.502;13.426;2023-03-23T06:52:46;6.43;;;1.95;;
56927;SDS011;60850;52.502;13.426;2023-03-23T06:55:14;4.70;;;1.88;;
56927;SDS011;60850;52.502;13.426;2023-03-23T06:57:42;3.40;;;2.08;;
56927;SDS011;60850;52.502;13.426;2023-03-23T07:00:12;3.28;;;2.20;;
56927;SDS011;60850;52.502;13.426;2023-03-23T07:02:40;4.22;;;2.10;;
56927;SDS011;60850;52.502;13.426;2023-03-23T07:05:08;4.68;;;2.13;;
56927;SDS011;60850;52.502;13.426;2023-03-23T07:07:36;4.82;;;1.65;;
56927;SDS011;60850;52.502;13.426;2023-03-23T07:10:03;4.13;;;2.03;;
56927;SDS011;60850;52.502;13.426;2023-03-23T07:12:32;2.53;;;1.60;;
56927;SDS011;60850;52.502;13.426;2023-03-23T07:15:01;4.85;;;1.63;;
56927;SDS011;60850;52.502;13.426;2023-03-23T07:17:29;3.92;;;2.00;;
56927;SDS011;60850;52.502;13.426;2023-03-23T07:19:57;5.03;;;1.83;;
56927;SDS011;60850;52.502;13.426;2023-03-23T07:22:23;3.42;;;2.05;;
56927;SDS011;60850;52.502;13.426;2023-03-23T07:24:51;2.30;;;1.60;;
56927;SDS011;60850;52.502;13.426;2023-03-23T07:27:17;3.67;;;1.90;;
56927;SDS011;60850;52.502;13.426;2023-03-23T07:29:45;4.65;;;1.80;;
56927;SDS011;60850;52.502;13.426;2023-03-23T07:32:11;6.38;;;2.13;;
56927;SDS011;60850;52.502;13.426;2023-03-23T07:34:40;6.40;;;2.70;;
56927;SDS011;60850;52.502;13.426;2023-03-23T07:37:07;3.78;;;1.88;;
56927;SDS011;60850;52.502;13.426;2023-03-23T07:39:35;4.70;;;1.92;;
56927;SDS011;60850;52.502;13.426;2023-03-23T07:42:02;4.30;;;1.77;;
56927;SDS011;60850;52.502;13.426;2023-03-23T07:44:29;4.10;;;1.75;;
56927;SDS011;60850;52.502;13.426;2023-03-23T07:46:56;4.07;;;1.60;;
56927;SDS011;60850;52.502;13.426;2023-03-23T07:49:23;4.43;;;2.30;;
56927;SDS011;60850;52.502;13.426;2023-03-23T07:51:53;5.05;;;1.77;;
56927;SDS011;60850;52.502;13.426;2023-03-23T07:54:21;2.72;;;1.98;;
56927;SDS011;60850;52.502;13.426;2023-03-23T07:56:48;3.92;;;2.00;;
56927;SDS011;60850;52.502;13.426;2023-03-23T07:59:15;3.78;;;1.63;;
56927;SDS011;60850;52.502;13.426;2023-03-23T08:01:42;3.22;;;1.70;;
56927;SDS011;60850;52.502;13.426;2023-03-23T08:04:09;5.82;;;1.98;;
56927;SDS011;60850;52.502;13.426;2023-03-23T08:06:36;4.07;;;1.80;;
56927;SDS011;60850;52.502;13.426;2023-03-23T08:09:06;8.25;;;2.58;;
56927;SDS011;60850;52.502;13.426;2023-03-23T08:11:33;6.05;;;2.20;;
56927;SDS011;60850;52.502;13.426;2023-03-23T08:14:00;5.72;;;2.70;;
56927;SDS011;60850;52.502;13.426;2023-03-23T08:16:28;4.63;;;2.10;;
56927;SDS011;60850;52.502;13.426;2023-03-23T08:18:55;6.20;;;2.17;;
56927;SDS011;60850;52.502;13.426;2023-03-23T08:21:23;4.10;;;1.90;;
56927;SDS011;60850;52.502;13.426;2023-03-23T08:23:52;3.35;;;2.10;;
56927;SDS011;60850;52.502;13.426;2023-03-23T08:26:20;4.57;;;2.20;;
56927;SDS011;60850;52.502;13.426;2023-03-23T08:28:47;4.95;;;2.00;;
56927;SDS011;60850;52.502;13.426;2023-03-23T08:31:14;3.53;;;2.70;;
56927;SDS011;60850;52.502;13.426;2023-03-23T08:33:42;2.70;;;1.70;;
56927;SDS011;60850;52.502;13.426;2023-03-23T08:36:09;3.22;;;1.70;;
56927;SDS011;60850;52.502;13.426;2023-03-23T08:38:36;3.38;;;1.98;;
56927;SDS011;60850;52.502;13.426;2023-03-23T08:41:04;5.85;;;1.77;;
56927;SDS011;60850;52.502;13.426;2023-03-23T08:43:34;3.95;;;1.70;;
56927;SDS011;60850;52.502;13.426;2023-03-23T08:46:03;3.17;;;1.98;;
56927;SDS011;60850;52.502;13.426;2023-03-23T08:48:34;3.03;;;1.75;;
56927;SDS011;60850;52.502;13.426;2023-03-23T08:51:02;6.60;;;2.53;;
56927;SDS011;60850;52.502;13.426;2023-03-23T08:53:29;4.13;;;2.05;;
56927;SDS011;60850;52.502;13.426;2023-03-23T08:56:02;2.65;;;1.98;;
56927;SDS011;60850;52.502;13.426;2023-03-23T08:58:29;3.60;;;2.28;;
56927;SDS011;60850;52.502;13.426;2023-03-23T09:00:58;3.83;;;1.95;;
56927;SDS011;60850;52.502;13.426;2023-03-23T09:03:25;3.03;;;1.90;;
56927;SDS011;60850;52.502;13.426;2023-03-23T09:05:52;2.10;;;1.60;;
56927;SDS011;60850;52.502;13.426;2023-03-23T09:08:19;3.45;;;1.70;;
56927;SDS011;60850;52.502;13.426;2023-03-23T09:10:46;2.67;;;1.77;;
56927;SDS011;60850;52.502;13.426;2023-03-23T09:13:15;3.15;;;1.65;;
56927;SDS011;60850;52.502;13.426;2023-03-23T09:15:42;4.38;;;2.25;;
56927;SDS011;60850;52.502;13.426;2023-03-23T09:18:10;3.42;;;1.58;;
56927;SDS011;60850;52.502;13.426;2023-03-23T09:20:37;3.92;;;1.83;;
56927;SDS011;60850;52.502;13.426;2023-03-23T09:23:05;3.33;;;1.75;;
56927;SDS011;60850;52.502;13.426;2023-03-23T09:25:32;3.17;;;1.75;;
56927;SDS011;60850;52.502;13.426;2023-03-23T09:27:59;3.20;;;1.70;;
56927;SDS011;60850;52.502;13.426;2023-03-23T09:30:27;3.50;;;1.60;;
56927;SDS011;60850;52.502;13.426;2023-03-23T09:32:57;2.50;;;1.60;;
56927;SDS011;60850;52.502;13.426;2023-03-23T09:35:27;4.00;;;2.05;;
56927;SDS011;60850;52.502;13.426;2023-03-23T09:37:57;2.17;;;1.52;;
56927;SDS011;60850;52.502;13.426;2023-03-23T09:40:26;3.67;;;1.90;;
56927;SDS011;60850;52.502;13.426;2023-03-23T09:43:07;5.05;;;2.15;;
56927;SDS011;60850;52.502;13.426;2023-03-23T09:45:47;4.60;;;1.65;;
56927;SDS011;60850;52.502;13.426;2023-03-23T09:48:31;6.78;;;2.92;;
56927;SDS011;60850;52.502;13.426;2023-03-23T09:51:08;4.07;;;1.80;;
56927;SDS011;60850;52.502;13.426;2023-03-23T09:53:46;2.83;;;1.50;;
56927;SDS011;60850;52.502;13.426;2023-03-23T09:56:17;3.03;;;1.70;;
56927;SDS011;60850;52.502;13.426;2023-03-23T09:58:46;4.13;;;2.25;;
56927;SDS011;60850;52.502;13.426;2023-03-23T10:01:20;1.73;;;1.50;;
56927;SDS011;60850;52.502;13.426;2023-03-23T10:03:51;1.90;;;1.27;;
56927;SDS011;60850;52.502;13.426;2023-03-23T10:06:26;2.35;;;1.10;;
56927;SDS011;60850;52.502;13.426;2023-03-23T10:08:55;5.60;;;1.95;;
56927;SDS011;60850;52.502;13.426;2023-03-23T10:11:27;2.47;;;1.38;;
56927;SDS011;60850;52.502;13.426;2023-03-23T10:16:53;2.80;;;1.13;;
56927;SDS011;60850;52.502;13.426;2023-03-23T10:19:28;3.97;;;1.30;;
56927;SDS011;60850;52.502;13.426;2023-03-23T10:22:03;2.33;;;1.60;;
56927;SDS011;60850;52.502;13.426;2023-03-23T10:24:35;2.33;;;1.35;;
56927;SDS011;60850;52.502;13.426;2023-03-23T10:27:11;2.00;;;1.23;;
56927;SDS011;60850;52.502;13.426;2023-03-23T10:29:47;2.17;;;1.05;;
56927;SDS011;60850;52.502;13.426;2023-03-23T10:32:20;1.88;;;0.90;;
56927;SDS011;60850;52.502;13.426;2023-03-23T10:34:50;1.30;;;1.05;;
56927;SDS011;60850;52.502;13.426;2023-03-23T10:37:23;2.72;;;1.20;;
56927;SDS011;60850;52.502;13.426;2023-03-23T10:39:54;1.65;;;0.88;;
56927;SDS011;60850;52.502;13.426;2023-03-23T10:42:23;2.78;;;1.08;;
56927;SDS011;60850;52.502;13.426;2023-03-23T10:44:52;2.28;;;1.15;;
56927;SDS011;60850;52.502;13.426;2023-03-23T10:47:19;3.28;;;1.50;;
56927;SDS011;60850;52.502;13.426;2023-03-23T10:49:47;2.33;;;1.20;;
56927;SDS011;60850;52.502;13.426;2023-03-23T10:52:28;1.60;;;1.10;;
56927;SDS011;60850;52.502;13.426;2023-03-23T10:55:02;2.55;;;1.40;;
56927;SDS011;60850;52.502;13.426;2023-03-23T10:57:35;1.98;;;1.05;;
56927;SDS011;60850;52.502;13.426;2023-03-23T11:00:04;1.73;;;1.00;;
56927;SDS011;60850;52.502;13.426;2023-03-23T11:02:37;1.98;;;1.30;;
56927;SDS011;60850;52.502;13.426;2023-03-23T11:05:13;2.42;;;1.08;;
56927;SDS011;60850;52.502;13.426;2023-03-23T11:07:49;1.40;;;1.17;;
56927;SDS011;60850;52.502;13.426;2023-03-23T11:10:21;2.30;;;1.20;;
56927;SDS011;60850;52.502;13.426;2023-03-23T11:12:51;3.45;;;1.20;;
56927;SDS011;60850;52.502;13.426;2023-03-23T11:15:27;3.53;;;1.42;;
56927;SDS011;60850;52.502;13.426;2023-03-23T11:17:57;2.97;;;1.20;;
56927;SDS011;60850;52.502;13.426;2023-03-23T11:20:26;2.97;;;1.50;;
56927;SDS011;60850;52.502;13.426;2023-03-23T11:22:56;3.60;;;1.08;;
56927;SDS011;60850;52.502;13.426;2023-03-23T11:25:23;3.47;;;1.20;;
56927;SDS011;60850;52.502;13.426;2023-03-23T11:27:52;3.28;;;1.33;;
56927;SDS011;60850;52.502;13.426;2023-03-23T11:30:24;2.58;;;1.30;;
56927;SDS011;60850;52.502;13.426;2023-03-23T11:32:53;2.13;;;1.60;;
56927;SDS011;60850;52.502;13.426;2023-03-23T11:35:22;4.10;;;1.60;;
56927;SDS011;60850;52.502;13.426;2023-03-23T11:37:52;1.55;;;1.00;;
56927;SDS011;60850;52.502;13.426;2023-03-23T11:40:24;2.92;;;1.30;;
56927;SDS011;60850;52.502;13.426;2023-03-23T11:42:59;4.35;;;1.40;;
56927;SDS011;60850;52.502;13.426;2023-03-23T11:45:31;3.45;;;1.60;;
56927;SDS011;60850;52.502;13.426;2023-03-23T11:50:48;2.47;;;1.40;;
56927;SDS011;60850;52.502;13.426;2023-03-23T11:53:30;3.83;;;1.35;;
56927;SDS011;60850;52.502;13.426;2023-03-23T11:56:07;2.85;;;1.20;;
56927;SDS011;60850;52.502;13.426;2023-03-23T11:58:38;2.95;;;1.63;;
56927;SDS011;60850;52.502;13.426;2023-03-23T12:01:10;1.92;;;1.00;;
56927;SDS011;60850;52.502;13.426;2023-03-23T12:03:55;1.90;;;1.10;;
56927;SDS011;60850;52.502;13.426;2023-03-23T12:06:30;2.17;;;1.10;;
56927;SDS011;60850;52.502;13.426;2023-03-23T12:09:07;2.75;;;1.45;;
56927;SDS011;60850;52.502;13.426;2023-03-23T12:11:51;3.05;;;1.80;;
56927;SDS011;60850;52.502;13.426;2023-03-23T12:14:25;2.53;;;1.70;;
56927;SDS011;60850;52.502;13.426;2023-03-23T12:17:04;3.80;;;1.55;;
56927;SDS011;60850;52.502;13.426;2023-03-23T12:19:45;2.05;;;1.40;;
56927;SDS011;60850;52.502;13.426;2023-03-23T12:22:24;2.70;;;1.60;;
56927;SDS011;60850;52.502;13.426;2023-03-23T12:25:05;3.67;;;1.42;;
56927;SDS011;60850;52.502;13.426;2023-03-23T12:27:45;3.42;;;1.88;;
56927;SDS011;60850;52.502;13.426;2023-03-23T12:30:23;2.90;;;1.70;;
56927;SDS011;60850;52.502;13.426;2023-03-23T12:33:08;3.58;;;1.55;;
56927;SDS011;60850;52.502;13.426;2023-03-23T12:35:47;3.40;;;1.52;;
56927;SDS011;60850;52.502;13.426;2023-03-23T12:38:29;3.28;;;1.63;;
56927;SDS011;60850;52.502;13.426;2023-03-23T12:41:10;5.30;;;2.90;;
56927;SDS011;60850;52.502;13.426;2023-03-23T12:43:46;7.22;;;2.40;;
56927;SDS011;60850;52.502;13.426;2023-03-23T12:49:17;2.05;;;1.33;;
56927;SDS011;60850;52.502;13.426;2023-03-23T12:51:50;2.10;;;1.45;;
56927;SDS011;60850;52.502;13.426;2023-03-23T12:54:23;2.35;;;1.30;;
56927;SDS011;60850;52.502;13.426;2023-03-23T12:56:58;4.07;;;1.20;;
56927;SDS011;60850;52.502;13.426;2023-03-23T12:59:34;3.47;;;1.45;;
56927;SDS011;60850;52.502;13.426;2023-03-23T13:02:09;3.92;;;1.63;;
56927;SDS011;60850;52.502;13.426;2023-03-23T13:04:43;2.50;;;1.48;;
56927;SDS011;60850;52.502;13.426;2023-03-23T13:07:16;3.88;;;1.05;;
56927;SDS011;60850;52.502;13.426;2023-03-23T13:09:48;2.55;;;1.40;;
56927;SDS011;60850;52.502;13.426;2023-03-23T13:12:20;3.75;;;1.50;;
56927;SDS011;60850;52.502;13.426;2023-03-23T13:14:53;6.07;;;1.58;;
56927;SDS011;60850;52.502;13.426;2023-03-23T13:17:30;3.00;;;1.40;;
56927;SDS011;60850;52.502;13.426;2023-03-23T13:20:14;2.30;;;1.13;;
56927;SDS011;60850;52.502;13.426;2023-03-23T13:22:58;2.80;;;1.30;;
56927;SDS011;60850;52.502;13.426;2023-03-23T13:28:12;2.80;;;1.50;;
56927;SDS011;60850;52.502;13.426;2023-03-23T13:30:52;2.30;;;1.45;;
56927;SDS011;60850;52.502;13.426;2023-03-23T13:33:20;2.28;;;1.23;;
56927;SDS011;60850;52.502;13.426;2023-03-23T13:35:48;3.50;;;1.15;;
56927;SDS011;60850;52.502;13.426;2023-03-23T13:38:18;1.92;;;1.10;;
56927;SDS011;60850;52.502;13.426;2023-03-23T13:40:48;1.98;;;1.35;;
56927;SDS011;60850;52.502;13.426;2023-03-23T13:43:24;5.47;;;1.50;;
56927;SDS011;60850;52.502;13.426;2023-03-23T13:46:05;2.20;;;1.20;;
56927;SDS011;60850;52.502;13.426;2023-03-23T13:48:44;2.20;;;1.10;;
56927;SDS011;60850;52.502;13.426;2023-03-23T13:51:25;3.40;;;1.30;;
56927;SDS011;60850;52.502;13.426;2023-03-23T13:54:06;3.17;;;1.58;;
56927;SDS011;60850;52.502;13.426;2023-03-23T13:56:48;3.47;;;1.27;;
56927;SDS011;60850;52.502;13.426;2023-03-23T13:59:28;8.15;;;1.88;;
56927;SDS011;60850;52.502;13.426;2023-03-23T14:05:10;2.28;;;1.20;;
56927;SDS011;60850;52.502;13.426;2023-03-23T14:07:52;3.40;;;1.48;;
56927;SDS011;60850;52.502;13.426;2023-03-23T14:10:20;3.33;;;1.33;;
56927;SDS011;60850;52.502;13.426;2023-03-23T14:12:49;4.32;;;1.10;;
56927;SDS011;60850;52.502;13.426;2023-03-23T14:15:19;4.25;;;1.48;;
56927;SDS011;60850;52.502;13.426;2023-03-23T14:17:46;4.80;;;1.20;;
56927;SDS011;60850;52.502;13.426;2023-03-23T14:20:23;2.95;;;1.25;;
56927;SDS011;60850;52.502;13.426;2023-03-23T14:22:53;4.07;;;1.65;;
56927;SDS011;60850;52.502;13.426;2023-03-23T14:25:22;3.67;;;1.75;;
56927;SDS011;60850;52.502;13.426;2023-03-23T14:27:52;4.15;;;1.30;;
56927;SDS011;60850;52.502;13.426;2023-03-23T14:30:20;2.22;;;1.00;;
56927;SDS011;60850;52.502;13.426;2023-03-23T14:32:50;2.95;;;1.15;;
56927;SDS011;60850;52.502;13.426;2023-03-23T14:35:22;3.92;;;1.30;;
56927;SDS011;60850;52.502;13.426;2023-03-23T14:37:52;4.28;;;1.40;;
56927;SDS011;60850;52.502;13.426;2023-03-23T14:40:19;1.77;;;1.20;;
56927;SDS011;60850;52.502;13.426;2023-03-23T14:42:47;4.47;;;1.70;;
56927;SDS011;60850;52.502;13.426;2023-03-23T14:45:17;2.38;;;1.25;;
56927;SDS011;60850;52.502;13.426;2023-03-23T14:47:47;3.47;;;1.40;;
56927;SDS011;60850;52.502;13.426;2023-03-23T14:50:24;3.20;;;1.38;;
56927;SDS011;60850;52.502;13.426;2023-03-23T14:52:56;4.40;;;0.98;;
56927;SDS011;60850;52.502;13.426;2023-03-23T14:55:25;4.30;;;1.55;;
56927;SDS011;60850;52.502;13.426;2023-03-23T14:58:05;2.75;;;1.27;;
56927;SDS011;60850;52.502;13.426;2023-03-23T15:00:34;2.60;;;1.27;;
56927;SDS011;60850;52.502;13.426;2023-03-23T15:03:04;2.55;;;1.58;;
56927;SDS011;60850;52.502;13.426;2023-03-23T15:05:36;3.35;;;1.48;;
56927;SDS011;60850;52.502;13.426;2023-03-23T15:08:08;3.30;;;2.22;;
56927;SDS011;60850;52.502;13.426;2023-03-23T15:10:40;2.38;;;1.55;;